Time;durP1;ratioP1;P1;durP2;ratioP2;P2;SDS_P1;SDS_P2;PMS_P1;PMS_P2;Temp;Humidity;BMP_temperature;BMP_pressure;BME280_temperature;BME280_humidity;BME280_pressure;Samples;Min_cycle;Max_cycle;Signal;HPM_P1;HPM_P2
2021/11/21 00:00:42;;;;;;;14.73;8.97;;;9.90;99.90;;;;;;4454414;32;20170;-67
2021/11/21 00:03:09;;;;;;;14.00;8.87;;;9.90;99.90;;;;;;4454736;32;20446;-67
2021/11/21 00:05:41;;;;;;;14.73;9.27;;;9.90;99.90;;;;;;4453418;32;20234;-67
2021/11/21 00:08:09;;;;;;;14.67;8.80;;;9.90;99.90;;;;;;4453091;32;20258;-68
2021/11/21 00:10:36;;;;;;;15.73;9.10;;;9.90;99.90;;;;;;4454488;32;20138;-67
2021/11/21 00:13:04;;;;;;;15.17;9.40;;;9.90;99.90;;;;;;4453709;32;20213;-67
2021/11/21 00:15:33;;;;;;;13.53;9.17;;;9.80;99.90;;;;;;4454758;32;20231;-67
2021/11/21 00:18:02;;;;;;;14.57;9.50;;;9.80;99.90;;;;;;4454640;32;20211;-67
2021/11/21 00:20:29;;;;;;;16.50;9.40;;;9.90;99.90;;;;;;4453829;32;20241;-67
2021/11/21 00:22:56;;;;;;;14.43;9.63;;;9.80;99.90;;;;;;4454786;32;20234;-67
2021/11/21 00:25:23;;;;;;;14.90;9.43;;;9.80;99.90;;;;;;4454238;32;20506;-67
2021/11/21 00:27:50;;;;;;;14.57;9.73;;;9.80;99.90;;;;;;4452981;32;20200;-67
2021/11/21 00:30:18;;;;;;;15.40;9.73;;;9.80;99.90;;;;;;4453721;32;20181;-67
2021/11/21 00:32:45;;;;;;;15.53;10.07;;;9.80;99.90;;;;;;4454345;32;20162;-67
2021/11/21 00:35:13;;;;;;;17.43;10.43;;;9.80;99.90;;;;;;4453483;32;20277;-67
2021/11/21 00:37:40;;;;;;;17.40;10.87;;;9.80;99.90;;;;;;4453361;32;20223;-67
2021/11/21 00:40:08;;;;;;;16.97;10.90;;;9.80;99.90;;;;;;4454125;32;20138;-67
2021/11/21 00:42:36;;;;;;;15.80;10.53;;;9.80;99.90;;;;;;4452281;32;20174;-67
2021/11/21 00:45:07;;;;;;;15.23;10.73;;;9.80;99.90;;;;;;4453615;32;20223;-67
2021/11/21 00:47:35;;;;;;;14.57;10.27;;;9.80;99.90;;;;;;4454669;32;20169;-67
2021/11/21 00:50:04;;;;;;;19.27;10.63;;;9.70;99.90;;;;;;4439697;32;20269;-67
2021/11/21 00:52:34;;;;;;;15.23;10.67;;;9.80;99.90;;;;;;4452914;32;20182;-67
2021/11/21 00:55:14;;;;;;;16.13;11.23;;;9.80;99.90;;;;;;4452635;32;20178;-67
2021/11/21 00:57:44;;;;;;;15.67;10.97;;;9.80;99.90;;;;;;4452661;32;20178;-67
2021/11/21 01:00:14;;;;;;;15.67;10.60;;;9.80;99.90;;;;;;4452228;32;20240;-67
2021/11/21 01:02:42;;;;;;;16.40;11.00;;;9.70;99.90;;;;;;4452123;32;20178;-67
2021/11/21 01:05:11;;;;;;;16.87;11.03;;;9.80;99.90;;;;;;4454965;32;20146;-67
2021/11/21 01:07:38;;;;;;;17.70;10.53;;;9.80;99.90;;;;;;4453307;32;20170;-67
2021/11/21 01:10:15;;;;;;;16.63;10.80;;;9.80;99.90;;;;;;4453964;32;20169;-66
2021/11/21 01:12:42;;;;;;;16.00;11.23;;;9.80;99.90;;;;;;4452286;32;20173;-66
2021/11/21 01:15:15;;;;;;;15.33;10.60;;;9.80;99.90;;;;;;4455329;32;20146;-67
2021/11/21 01:17:42;;;;;;;16.33;10.40;;;9.70;99.90;;;;;;4453076;32;20208;-67
2021/11/21 01:20:10;;;;;;;15.77;10.67;;;9.70;99.90;;;;;;4455651;32;20188;-67
2021/11/21 01:22:38;;;;;;;15.20;10.60;;;9.70;99.90;;;;;;4456681;32;20170;-67
2021/11/21 01:25:07;;;;;;;16.87;11.47;;;9.70;99.90;;;;;;4454816;32;20173;-67
2021/11/21 01:27:35;;;;;;;16.87;11.50;;;9.70;99.90;;;;;;4455499;32;20192;-67
2021/11/21 01:30:05;;;;;;;16.33;11.40;;;9.70;99.90;;;;;;4456497;32;20431;-67
2021/11/21 01:32:32;;;;;;;17.33;11.83;;;9.70;99.90;;;;;;4456312;32;20170;-67
2021/11/21 01:34:59;;;;;;;16.83;11.00;;;9.70;99.90;;;;;;4456308;32;20166;-66
2021/11/21 01:37:26;;;;;;;17.77;11.43;;;9.70;99.90;;;;;;4454878;32;20249;-67
2021/11/21 01:39:54;;;;;;;19.13;11.47;;;9.70;99.90;;;;;;4454669;32;20254;-67
2021/11/21 01:42:22;;;;;;;19.27;11.37;;;9.70;99.90;;;;;;4455303;32;20166;-67
2021/11/21 01:44:53;;;;;;;18.07;11.23;;;9.70;99.90;;;;;;4455227;32;20227;-67
2021/11/21 01:47:20;;;;;;;16.77;11.10;;;9.60;99.90;;;;;;4456297;32;20174;-67
2021/11/21 01:49:48;;;;;;;17.77;11.20;;;9.60;99.90;;;;;;4456138;32;20197;-67
2021/11/21 01:52:15;;;;;;;16.53;10.83;;;9.70;99.90;;;;;;4454946;32;20182;-67
2021/11/21 01:54:42;;;;;;;16.90;11.13;;;9.60;99.90;;;;;;4454893;32;20177;-67
2021/11/21 01:57:11;;;;;;;17.87;10.87;;;9.70;99.90;;;;;;4456340;32;20204;-67
2021/11/21 01:59:38;;;;;;;16.70;11.03;;;9.60;99.90;;;;;;4456888;32;20402;-67
2021/11/21 02:02:05;;;;;;;17.40;11.20;;;9.60;99.90;;;;;;4455687;32;20410;-67
2021/11/21 02:04:33;;;;;;;15.30;10.90;;;9.60;99.90;;;;;;4455914;32;20198;-67
2021/11/21 02:07:00;;;;;;;17.47;10.63;;;9.60;99.90;;;;;;4457082;32;20424;-67
2021/11/21 02:09:28;;;;;;;14.13;10.43;;;9.60;99.90;;;;;;4454095;32;20170;-67
2021/11/21 02:11:55;;;;;;;16.27;10.40;;;9.60;99.90;;;;;;4455029;32;20166;-67
2021/11/21 02:14:22;;;;;;;18.10;11.20;;;9.60;99.90;;;;;;4456067;32;20192;-67
2021/11/21 02:16:49;;;;;;;16.73;10.93;;;9.60;99.90;;;;;;4454215;32;20176;-67
2021/11/21 02:19:17;;;;;;;16.10;10.10;;;9.60;99.90;;;;;;4455704;32;20177;-66
2021/11/21 02:21:44;;;;;;;15.27;10.47;;;9.60;99.90;;;;;;4455121;32;20189;-67
2021/11/21 02:24:11;;;;;;;15.93;10.33;;;9.60;99.90;;;;;;4455952;32;20230;-67
2021/11/21 02:26:38;;;;;;;18.03;10.17;;;9.60;99.90;;;;;;4455462;32;20180;-67
2021/11/21 02:29:05;;;;;;;16.60;10.73;;;9.60;99.90;;;;;;4455578;32;20171;-67
2021/11/21 02:31:32;;;;;;;14.97;10.10;;;9.50;99.90;;;;;;4455283;32;20169;-67
2021/11/21 02:33:59;;;;;;;16.87;10.63;;;9.60;99.90;;;;;;4455937;32;20208;-67
2021/11/21 02:36:26;;;;;;;17.37;9.97;;;9.60;99.90;;;;;;4454215;32;20546;-67
2021/11/21 02:38:53;;;;;;;18.53;10.60;;;9.60;99.90;;;;;;4455596;32;20213;-67
2021/11/21 02:41:21;;;;;;;16.30;10.00;;;9.50;99.90;;;;;;4455689;32;20134;-67
2021/11/21 02:43:48;;;;;;;17.10;10.80;;;9.50;99.90;;;;;;4454677;32;20188;-68
2021/11/21 02:46:16;;;;;;;15.70;10.50;;;9.50;99.90;;;;;;4454065;32;20174;-67
2021/11/21 02:48:44;;;;;;;16.43;10.40;;;9.50;99.90;;;;;;4453499;32;20486;-67
2021/11/21 02:51:14;;;;;;;17.43;10.30;;;9.50;99.90;;;;;;4453326;32;20500;-67
2021/11/21 02:53:43;;;;;;;17.93;10.80;;;9.50;99.90;;;;;;4455051;32;20437;-67
2021/11/21 02:56:14;;;;;;;17.07;10.80;;;9.50;99.90;;;;;;4453481;32;20170;-67
2021/11/21 02:58:41;;;;;;;17.80;10.63;;;9.50;99.90;;;;;;4454036;32;20223;-67
2021/11/21 03:01:18;;;;;;;16.40;10.73;;;9.50;99.90;;;;;;4455179;32;20246;-67
2021/11/21 03:03:46;;;;;;;16.17;10.17;;;9.50;99.90;;;;;;4456184;32;20437;-67
2021/11/21 03:06:13;;;;;;;17.07;10.70;;;9.50;99.90;;;;;;4455769;32;20169;-67
2021/11/21 03:08:41;;;;;;;16.83;10.67;;;9.50;99.90;;;;;;4454095;32;20404;-67
2021/11/21 03:11:31;;;;;;;18.60;10.53;;;9.50;99.90;;;;;;4455333;32;20200;-67
2021/11/21 03:14:01;;;;;;;18.53;10.77;;;9.50;99.90;;;;;;4453639;32;20196;-67
2021/11/21 03:16:28;;;;;;;16.83;10.50;;;9.40;99.90;;;;;;4454095;32;20240;-67
2021/11/21 03:18:56;;;;;;;18.20;10.77;;;9.40;99.90;;;;;;4454959;32;20147;-67
2021/11/21 03:21:23;;;;;;;18.97;10.50;;;9.40;99.90;;;;;;4453755;32;20433;-67
2021/11/21 03:23:50;;;;;;;20.33;11.00;;;9.50;99.90;;;;;;4454857;32;20226;-67
2021/11/21 03:26:19;;;;;;;15.67;10.20;;;9.40;99.90;;;;;;4455693;32;20154;-67
2021/11/21 03:28:46;;;;;;;18.37;10.93;;;9.40;99.90;;;;;;4453303;32;20507;-67
2021/11/21 03:31:14;;;;;;;17.97;10.53;;;9.40;99.90;;;;;;4453022;32;20636;-67
2021/11/21 03:33:41;;;;;;;16.20;10.23;;;9.40;99.90;;;;;;4452779;32;20605;-67
2021/11/21 03:36:08;;;;;;;18.00;10.37;;;9.40;99.90;;;;;;4453175;32;20420;-67
2021/11/21 03:38:35;;;;;;;17.43;10.63;;;9.30;99.90;;;;;;4454585;32;20154;-67
2021/11/21 03:41:02;;;;;;;17.70;10.53;;;9.30;99.90;;;;;;4454318;32;20503;-67
2021/11/21 03:43:29;;;;;;;18.20;10.93;;;9.30;99.90;;;;;;4454637;32;20166;-67
2021/11/21 03:45:56;;;;;;;19.23;11.33;;;9.20;99.90;;;;;;4452852;32;20170;-67
2021/11/21 03:48:24;;;;;;;19.63;10.67;;;9.20;99.90;;;;;;4453070;32;20252;-66
2021/11/21 03:50:51;;;;;;;19.60;11.00;;;9.20;99.90;;;;;;4453407;32;20178;-68
2021/11/21 03:53:18;;;;;;;20.33;11.43;;;9.10;99.90;;;;;;4452964;32;20615;-67
2021/11/21 03:55:47;;;;;;;22.13;11.73;;;9.10;99.90;;;;;;4454144;32;20510;-67
2021/11/21 03:58:14;;;;;;;19.17;11.70;;;9.10;99.90;;;;;;4453548;32;20503;-67
2021/11/21 04:00:45;;;;;;;21.07;12.27;;;9.00;99.90;;;;;;4454151;32;20166;-67
2021/11/21 04:03:15;;;;;;;20.60;11.30;;;9.00;99.90;;;;;;4455771;32;20179;-67
2021/11/21 04:05:42;;;;;;;19.07;11.20;;;9.00;99.90;;;;;;4452811;32;20588;-67
2021/11/21 04:08:09;;;;;;;22.67;11.93;;;9.00;99.90;;;;;;4454488;32;20531;-67
2021/11/21 04:10:37;;;;;;;20.27;11.77;;;9.00;99.90;;;;;;4453179;32;20405;-67
2021/11/21 04:13:05;;;;;;;21.77;11.77;;;9.00;99.90;;;;;;4454374;32;20191;-67
2021/11/21 04:15:32;;;;;;;18.67;10.93;;;9.00;99.90;;;;;;4455407;32;20140;-67
2021/11/21 04:17:59;;;;;;;18.63;10.70;;;9.00;99.90;;;;;;4453663;32;20169;-67
2021/11/21 04:20:27;;;;;;;19.30;10.67;;;9.00;99.90;;;;;;4455004;32;20461;-66
2021/11/21 04:22:54;;;;;;;20.23;11.17;;;9.00;99.90;;;;;;4452470;32;20647;-67
2021/11/21 04:25:21;;;;;;;20.87;11.30;;;9.00;99.90;;;;;;4454154;32;20177;-67
2021/11/21 04:27:48;;;;;;;21.27;10.50;;;9.00;99.90;;;;;;4453416;32;20165;-67
2021/11/21 04:30:16;;;;;;;18.93;10.67;;;9.00;99.90;;;;;;4454385;32;20142;-66
2021/11/21 04:32:45;;;;;;;19.10;10.93;;;9.00;99.90;;;;;;4453939;32;20200;-67
2021/11/21 04:35:16;;;;;;;19.37;10.53;;;9.00;99.90;;;;;;4452937;32;20230;-67
2021/11/21 04:37:43;;;;;;;19.77;10.87;;;9.00;99.90;;;;;;4452481;32;20193;-67
2021/11/21 04:40:12;;;;;;;22.60;10.30;;;9.00;99.90;;;;;;4452978;32;20301;-67
2021/11/21 04:42:40;;;;;;;19.10;10.03;;;9.00;99.90;;;;;;4453920;32;20384;-67
2021/11/21 04:45:09;;;;;;;18.17;10.20;;;9.00;99.90;;;;;;4453059;32;20177;-66
2021/11/21 04:47:36;;;;;;;21.57;10.97;;;9.00;99.90;;;;;;4454142;32;20167;-67
2021/11/21 04:50:09;;;;;;;18.53;10.50;;;9.00;99.90;;;;;;4452569;32;20437;-67
2021/11/21 04:52:37;;;;;;;19.53;10.10;;;9.00;99.90;;;;;;4455856;32;20397;-67
2021/11/21 04:55:06;;;;;;;16.63;9.53;;;9.00;99.90;;;;;;4456390;32;20238;-67
2021/11/21 04:57:33;;;;;;;18.53;10.27;;;9.00;99.90;;;;;;4457120;32;20171;-66
2021/11/21 05:00:06;;;;;;;16.87;9.73;;;9.00;99.90;;;;;;4457133;32;20200;-67
2021/11/21 05:02:34;;;;;;;18.00;10.03;;;9.00;99.90;;;;;;4455991;32;20173;-67
2021/11/21 05:05:01;;;;;;;18.70;9.93;;;9.00;99.90;;;;;;4458328;32;20141;-67
2021/11/21 05:07:28;;;;;;;17.73;9.57;;;9.00;99.90;;;;;;4455387;32;20591;-67
2021/11/21 05:09:55;;;;;;;18.87;9.67;;;8.90;99.90;;;;;;4458281;32;20398;-67
2021/11/21 05:12:23;;;;;;;19.27;10.37;;;8.90;99.90;;;;;;4456672;32;20173;-67
2021/11/21 05:14:52;;;;;;;18.50;9.90;;;8.90;99.90;;;;;;4455701;32;20178;-66
2021/11/21 05:17:19;;;;;;;18.30;9.90;;;8.90;99.90;;;;;;4455053;32;20194;-67
2021/11/21 05:19:46;;;;;;;19.90;9.87;;;8.90;99.90;;;;;;4456447;32;20231;-67
2021/11/21 05:22:13;;;;;;;18.00;10.17;;;8.80;99.90;;;;;;4455506;32;20219;-67
2021/11/21 05:24:40;;;;;;;18.50;9.90;;;8.80;99.90;;;;;;4456534;32;20234;-67
2021/11/21 05:27:07;;;;;;;16.93;9.50;;;8.80;99.90;;;;;;4455470;32;20222;-67
2021/11/21 05:29:34;;;;;;;20.37;10.63;;;8.80;99.90;;;;;;4455005;32;20265;-68
2021/11/21 05:32:02;;;;;;;18.47;9.97;;;8.80;99.90;;;;;;4456380;32;20216;-67
2021/11/21 05:34:30;;;;;;;17.03;9.60;;;8.80;99.90;;;;;;4456415;32;20197;-67
2021/11/21 05:36:57;;;;;;;19.57;10.73;;;8.80;99.90;;;;;;4454960;32;20234;-67
2021/11/21 05:39:24;;;;;;;20.90;10.60;;;8.80;99.90;;;;;;4454939;32;20228;-67
2021/11/21 05:41:51;;;;;;;19.30;10.67;;;8.70;99.90;;;;;;4456390;32;20378;-67
2021/11/21 05:44:19;;;;;;;17.60;9.97;;;8.70;99.90;;;;;;4456467;32;20182;-67
2021/11/21 05:46:47;;;;;;;18.20;9.93;;;8.70;99.90;;;;;;4455663;32;20183;-66
2021/11/21 05:49:14;;;;;;;21.10;10.33;;;8.70;99.90;;;;;;4455921;32;20193;-68
2021/11/21 05:51:41;;;;;;;21.33;11.00;;;8.60;99.90;;;;;;4454215;32;20174;-67
2021/11/21 05:54:08;;;;;;;20.37;10.73;;;8.60;99.90;;;;;;4457041;32;20154;-67
2021/11/21 05:56:35;;;;;;;19.37;10.57;;;8.60;99.90;;;;;;4456743;32;20139;-67
2021/11/21 05:59:02;;;;;;;19.13;10.30;;;8.60;99.90;;;;;;4454158;32;20552;-67
2021/11/21 06:01:30;;;;;;;20.57;10.97;;;8.60;99.90;;;;;;4455335;32;20192;-66
2021/11/21 06:03:58;;;;;;;21.93;11.37;;;8.60;99.90;;;;;;4454068;32;20432;-67
2021/11/21 06:06:25;;;;;;;20.80;10.77;;;8.60;99.90;;;;;;4455683;32;20369;-67
2021/11/21 06:08:53;;;;;;;20.73;10.53;;;8.60;99.90;;;;;;4454553;32;20511;-67
2021/11/21 06:11:19;;;;;;;24.03;11.63;;;8.60;99.90;;;;;;4456336;32;20411;-67
2021/11/21 06:13:46;;;;;;;23.30;10.63;;;8.60;99.90;;;;;;4456086;32;20181;-67
2021/11/21 06:16:13;;;;;;;22.37;11.40;;;8.60;99.90;;;;;;4454571;32;20535;-67
2021/11/21 06:18:41;;;;;;;21.33;10.80;;;8.60;99.90;;;;;;4454903;32;20196;-67
2021/11/21 06:21:08;;;;;;;20.77;10.50;;;8.60;99.90;;;;;;4454278;32;20182;-67
2021/11/21 06:23:36;;;;;;;21.33;11.13;;;8.50;99.90;;;;;;4457087;32;20187;-67
2021/11/21 06:26:05;;;;;;;22.43;10.90;;;8.60;99.90;;;;;;4454815;32;20174;-67
2021/11/21 06:28:33;;;;;;;20.77;10.97;;;8.50;99.90;;;;;;4455212;32;20170;-66
2021/11/21 06:31:00;;;;;;;20.30;10.63;;;8.50;99.90;;;;;;4453676;32;20657;-68
2021/11/21 06:33:27;;;;;;;22.27;10.77;;;8.50;99.90;;;;;;4455395;32;20235;-67
2021/11/21 06:35:54;;;;;;;21.57;10.83;;;8.60;99.90;;;;;;4455289;32;20347;-67
2021/11/21 06:38:21;;;;;;;20.73;10.67;;;8.60;99.90;;;;;;4454728;32;20197;-67
2021/11/21 06:40:49;;;;;;;21.67;11.10;;;8.60;99.90;;;;;;4455266;32;20182;-66
2021/11/21 06:43:15;;;;;;;20.13;10.43;;;8.60;99.90;;;;;;4453110;32;20178;-66
2021/11/21 06:45:43;;;;;;;22.80;11.33;;;8.60;99.90;;;;;;4453940;32;20446;-66
2021/11/21 06:48:11;;;;;;;19.47;10.40;;;8.60;99.90;;;;;;4455203;32;20182;-66
2021/11/21 06:50:38;;;;;;;19.80;10.17;;;8.60;99.90;;;;;;4455175;32;20182;-67
2021/11/21 06:53:06;;;;;;;20.53;10.50;;;8.60;99.90;;;;;;4454982;32;20406;-67
2021/11/21 06:55:33;;;;;;;20.47;10.87;;;8.60;99.90;;;;;;4453524;32;20419;-67
2021/11/21 06:58:00;;;;;;;19.73;10.50;;;8.60;99.90;;;;;;4453519;32;20205;-67
2021/11/21 07:00:27;;;;;;;21.20;10.07;;;8.60;99.90;;;;;;4454251;32;20443;-67
2021/11/21 07:02:54;;;;;;;19.23;10.17;;;8.60;99.90;;;;;;4454973;32;20428;-67
2021/11/21 07:05:21;;;;;;;20.23;10.27;;;8.60;99.90;;;;;;4454303;32;20465;-67
2021/11/21 07:07:48;;;;;;;20.63;10.13;;;8.60;99.90;;;;;;4454248;32;20233;-66
2021/11/21 07:10:15;;;;;;;19.90;10.70;;;8.70;99.90;;;;;;4456410;32;20173;-66
2021/11/21 07:12:43;;;;;;;21.20;10.77;;;8.60;99.90;;;;;;4454013;32;20204;-67
2021/11/21 07:15:13;;;;;;;20.73;10.30;;;8.60;99.90;;;;;;4452975;32;20226;-66
2021/11/21 07:17:41;;;;;;;19.30;10.10;;;8.60;99.90;;;;;;4454142;32;20166;-66
2021/11/21 07:20:15;;;;;;;21.67;11.33;;;8.60;99.90;;;;;;4453343;32;20472;-67
2021/11/21 07:22:51;;;;;;;21.57;10.80;;;8.60;99.90;;;;;;4453207;32;20174;-67
2021/11/21 07:25:20;;;;;;;21.03;10.77;;;8.60;99.90;;;;;;4455820;32;20532;-67
2021/11/21 07:27:49;;;;;;;22.33;10.97;;;8.50;99.90;;;;;;4454519;32;20413;-67
2021/11/21 07:30:18;;;;;;;19.07;10.97;;;8.60;99.90;;;;;;4454490;32;20176;-67
2021/11/21 07:32:46;;;;;;;19.23;10.07;;;8.60;99.90;;;;;;4456106;32;20167;-67
2021/11/21 07:35:16;;;;;;;22.93;11.47;;;8.50;99.90;;;;;;4453046;32;20182;-67
2021/11/21 07:37:43;;;;;;;22.10;11.23;;;8.60;99.90;;;;;;4453720;32;20167;-67
2021/11/21 07:40:12;;;;;;;19.77;10.67;;;8.60;99.90;;;;;;4454642;32;20509;-67
2021/11/21 07:42:40;;;;;;;23.00;11.60;;;8.60;99.90;;;;;;4453346;32;20215;-67
2021/11/21 07:45:09;;;;;;;23.50;10.73;;;8.50;99.90;;;;;;4454574;32;20139;-67
2021/11/21 07:47:37;;;;;;;25.07;11.40;;;8.60;99.90;;;;;;4454592;32;20178;-67
2021/11/21 07:50:04;;;;;;;19.73;10.53;;;8.60;99.90;;;;;;4452609;32;20545;-66
2021/11/21 07:52:31;;;;;;;22.20;11.40;;;8.60;99.90;;;;;;4452574;32;20197;-67
2021/11/21 07:54:58;;;;;;;19.40;10.93;;;8.60;99.90;;;;;;4455895;32;20479;-67
2021/11/21 07:57:25;;;;;;;22.47;11.37;;;8.70;99.90;;;;;;4454252;32;20207;-67
2021/11/21 07:59:52;;;;;;;22.00;10.87;;;8.60;99.90;;;;;;4453478;32;20173;-67
2021/11/21 08:02:19;;;;;;;21.73;11.63;;;8.60;99.90;;;;;;4455928;32;20415;-67
2021/11/21 08:04:47;;;;;;;22.00;11.53;;;8.70;99.90;;;;;;4454602;32;20177;-67
2021/11/21 08:07:14;;;;;;;21.20;10.97;;;8.70;99.90;;;;;;4454030;32;20182;-68
2021/11/21 08:09:41;;;;;;;23.40;11.43;;;8.70;99.90;;;;;;4454189;32;20184;-67
2021/11/21 08:12:09;;;;;;;19.97;10.80;;;8.70;99.90;;;;;;4453064;32;20208;-67
2021/11/21 08:14:38;;;;;;;22.10;11.40;;;8.70;99.90;;;;;;4452420;32;20210;-67
2021/11/21 08:17:05;;;;;;;20.67;10.73;;;8.70;99.90;;;;;;4455220;32;20154;-67
2021/11/21 08:19:32;;;;;;;20.80;11.37;;;8.70;99.90;;;;;;4453173;32;20269;-67
2021/11/21 08:21:59;;;;;;;22.17;11.50;;;8.70;99.90;;;;;;4454010;32;20166;-67
2021/11/21 08:24:27;;;;;;;23.57;11.77;;;8.70;99.90;;;;;;4454815;32;20178;-67
2021/11/21 08:26:54;;;;;;;19.37;10.77;;;8.70;99.90;;;;;;4455194;32;20182;-67
2021/11/21 08:29:21;;;;;;;21.97;11.53;;;8.70;99.90;;;;;;4457443;32;20181;-67
2021/11/21 08:31:57;;;;;;;21.37;11.17;;;8.70;99.90;;;;;;4456222;32;20489;-67
2021/11/21 08:34:26;;;;;;;21.50;10.57;;;8.70;99.90;;;;;;4457783;32;20151;-67
2021/11/21 08:36:53;;;;;;;20.37;10.83;;;8.70;99.90;;;;;;4456771;32;20658;-67
2021/11/21 08:39:23;;;;;;;21.20;10.60;;;8.70;99.90;;;;;;4457239;32;20172;-67
2021/11/21 08:41:52;;;;;;;22.00;10.83;;;8.80;99.90;;;;;;4456666;32;20154;-67
2021/11/21 08:44:19;;;;;;;20.47;10.70;;;8.80;99.90;;;;;;4455453;32;20182;-69
2021/11/21 08:46:47;;;;;;;21.00;10.67;;;8.80;99.90;;;;;;4457582;32;20182;-67
2021/11/21 08:49:14;;;;;;;21.73;11.47;;;8.80;99.90;;;;;;4455636;32;20174;-67
2021/11/21 08:51:43;;;;;;;21.63;11.13;;;8.80;99.90;;;;;;4455611;32;20174;-67
2021/11/21 08:54:11;;;;;;;21.83;11.27;;;8.80;99.90;;;;;;4456822;32;20142;-66
2021/11/21 08:56:39;;;;;;;22.37;11.50;;;8.80;99.90;;;;;;4456949;32;20411;-66
2021/11/21 08:59:06;;;;;;;22.40;11.63;;;8.80;99.90;;;;;;4456176;32;20223;-67
2021/11/21 09:01:33;;;;;;;21.37;11.50;;;8.90;99.90;;;;;;4455375;32;20282;-67
2021/11/21 09:04:01;;;;;;;19.67;10.80;;;9.00;99.90;;;;;;4456852;32;20186;-67
2021/11/21 09:06:28;;;;;;;19.63;10.97;;;9.00;99.90;;;;;;4455913;32;20178;-66
2021/11/21 09:08:56;;;;;;;19.60;10.37;;;9.10;99.90;;;;;;4457130;32;20272;-67
2021/11/21 09:11:24;;;;;;;22.30;10.73;;;9.10;99.90;;;;;;4454967;32;20186;-66
2021/11/21 09:13:51;;;;;;;18.17;10.10;;;9.20;99.90;;;;;;4456793;32;20146;-67
2021/11/21 09:16:18;;;;;;;20.03;10.53;;;9.20;99.90;;;;;;4455346;32;20186;-67
2021/11/21 09:18:46;;;;;;;19.43;10.20;;;9.20;99.90;;;;;;4457889;32;20482;-67
2021/11/21 09:21:13;;;;;;;18.33;10.07;;;9.20;99.90;;;;;;4456100;32;20205;-67
2021/11/21 09:23:40;;;;;;;19.77;10.77;;;9.30;99.90;;;;;;4455690;32;20219;-67
2021/11/21 09:26:07;;;;;;;18.53;9.97;;;9.30;99.90;;;;;;4456662;32;20200;-67
2021/11/21 09:28:35;;;;;;;20.20;10.03;;;9.30;99.90;;;;;;4456174;32;20170;-67
2021/11/21 09:31:02;;;;;;;19.20;9.80;;;9.30;99.90;;;;;;4456709;32;20423;-67
2021/11/21 09:33:30;;;;;;;16.93;9.50;;;9.30;99.90;;;;;;4456005;32;20185;-67
2021/11/21 09:35:57;;;;;;;17.33;9.80;;;9.30;99.90;;;;;;4456410;32;20272;-67
2021/11/21 09:38:24;;;;;;;16.67;9.90;;;9.30;99.90;;;;;;4454638;32;20181;-67
2021/11/21 09:40:52;;;;;;;20.30;9.83;;;9.30;99.90;;;;;;4455465;32;20481;-67
2021/11/21 09:43:19;;;;;;;16.40;9.07;;;9.30;99.90;;;;;;4455881;32;20184;-68
2021/11/21 09:45:47;;;;;;;19.67;9.90;;;9.30;99.90;;;;;;4454377;32;20213;-67
2021/11/21 09:48:15;;;;;;;17.73;9.50;;;9.30;99.90;;;;;;4456112;32;20169;-67
2021/11/21 09:50:43;;;;;;;19.77;10.00;;;9.30;99.90;;;;;;4456039;32;20181;-67
2021/11/21 09:53:12;;;;;;;18.33;9.70;;;9.30;99.90;;;;;;4454310;32;20200;-67
2021/11/21 09:55:40;;;;;;;19.40;10.47;;;9.30;99.90;;;;;;4457301;32;20199;-67
2021/11/21 09:58:07;;;;;;;18.17;9.73;;;9.30;99.90;;;;;;4454674;32;20219;-67
2021/11/21 10:00:35;;;;;;;17.83;10.10;;;9.30;99.90;;;;;;4456208;32;20201;-67
2021/11/21 10:03:08;;;;;;;17.40;9.57;;;9.30;99.90;;;;;;4456017;32;20170;-67
2021/11/21 10:05:39;;;;;;;17.70;9.87;;;9.20;99.90;;;;;;4455623;32;20395;-67
2021/11/21 10:08:22;;;;;;;19.13;10.17;;;9.20;99.90;;;;;;4455796;32;20209;-67
2021/11/21 10:11:08;;;;;;;19.00;10.17;;;9.20;99.90;;;;;;4454157;32;20166;-67
2021/11/21 10:13:45;;;;;;;17.73;9.63;;;9.20;99.90;;;;;;4456814;32;20174;-67
2021/11/21 10:16:18;;;;;;;19.10;10.00;;;9.20;99.90;;;;;;4455646;32;20181;-67
2021/11/21 10:19:00;;;;;;;17.23;10.10;;;9.20;99.90;;;;;;4454425;32;20212;-67
2021/11/21 10:21:35;;;;;;;15.67;9.43;;;9.20;99.90;;;;;;4453690;32;20248;-67
2021/11/21 10:24:23;;;;;;;17.73;9.97;;;9.20;99.90;;;;;;4455748;32;20281;-67
2021/11/21 10:27:11;;;;;;;19.67;10.50;;;9.20;99.90;;;;;;4454149;32;20175;-67
2021/11/21 10:29:41;;;;;;;17.10;9.40;;;9.20;99.90;;;;;;4455008;32;20220;-67
2021/11/21 10:32:18;;;;;;;16.87;9.73;;;9.30;99.90;;;;;;4456483;32;20198;-67
2021/11/21 10:34:54;;;;;;;17.27;9.20;;;9.20;99.90;;;;;;4456840;32;20217;-67
2021/11/21 10:37:33;;;;;;;16.67;9.40;;;9.20;99.90;;;;;;4453957;32;20208;-67
2021/11/21 10:40:09;;;;;;;18.57;9.80;;;9.20;99.90;;;;;;4454112;32;20169;-67
2021/11/21 10:42:39;;;;;;;15.70;9.10;;;9.20;99.90;;;;;;4454886;32;20391;-67
2021/11/21 10:45:08;;;;;;;14.83;8.67;;;9.30;99.90;;;;;;4454924;32;20217;-67
2021/11/21 10:47:49;;;;;;;15.53;8.80;;;9.30;99.90;;;;;;4454578;32;20200;-67
2021/11/21 10:50:30;;;;;;;17.27;9.60;;;9.30;99.90;;;;;;4455377;32;20184;-67
2021/11/21 10:52:59;;;;;;;17.83;8.87;;;9.40;99.90;;;;;;4453432;32;20208;-67
2021/11/21 10:55:26;;;;;;;15.37;8.67;;;9.30;99.90;;;;;;4456725;32;20485;-67
2021/11/21 10:57:53;;;;;;;15.57;8.63;;;9.30;99.90;;;;;;4453525;32;20194;-67
2021/11/21 11:00:23;;;;;;;18.27;9.47;;;9.30;99.90;;;;;;4453288;32;20204;-67
2021/11/21 11:02:50;;;;;;;16.13;9.00;;;9.40;99.90;;;;;;4440686;32;20171;-67
2021/11/21 11:05:21;;;;;;;16.77;8.67;;;9.30;99.90;;;;;;4455136;32;20173;-67
2021/11/21 11:08:02;;;;;;;16.63;9.40;;;9.30;99.90;;;;;;4455213;32;20170;-67
2021/11/21 11:10:38;;;;;;;17.20;9.63;;;9.30;99.90;;;;;;4453514;32;20491;-67
2021/11/21 11:13:17;;;;;;;20.03;10.23;;;9.30;99.90;;;;;;4453290;32;20212;-67
2021/11/21 11:15:45;;;;;;;19.80;9.73;;;9.30;99.90;;;;;;4455547;32;20162;-67
2021/11/21 11:18:15;;;;;;;17.60;9.33;;;9.30;99.90;;;;;;4452904;32;20185;-67
2021/11/21 11:20:50;;;;;;;17.67;9.57;;;9.30;99.90;;;;;;4454263;32;20185;-67
2021/11/21 11:23:20;;;;;;;17.73;10.03;;;9.30;99.90;;;;;;4452820;32;20243;-67
2021/11/21 11:25:48;;;;;;;17.93;10.27;;;9.30;99.90;;;;;;4454948;32;20209;-67
2021/11/21 11:28:19;;;;;;;19.97;10.47;;;9.30;99.90;;;;;;4453176;32;20281;-67
2021/11/21 11:30:50;;;;;;;18.10;10.00;;;9.30;99.90;;;;;;4452766;32;20224;-67
2021/11/21 11:33:19;;;;;;;17.17;9.83;;;9.30;99.90;;;;;;4440362;32;20243;-67
2021/11/21 11:35:47;;;;;;;17.87;10.17;;;9.30;99.90;;;;;;4454815;32;20251;-67
2021/11/21 11:38:26;;;;;;;17.50;9.87;;;9.20;99.90;;;;;;4452834;32;20208;-67
2021/11/21 11:40:56;;;;;;;17.37;9.90;;;9.30;99.90;;;;;;4452618;32;20185;-67
2021/11/21 11:43:43;;;;;;;21.83;11.10;;;9.30;99.90;;;;;;4454057;32;20392;-67
2021/11/21 11:46:19;;;;;;;23.13;11.30;;;9.30;99.90;;;;;;4456016;32;20373;-67
2021/11/21 11:48:48;;;;;;;21.43;10.50;;;9.30;99.90;;;;;;4452761;32;20223;-67
2021/11/21 11:51:27;;;;;;;20.97;11.60;;;9.30;99.90;;;;;;4452930;32;20417;-67
2021/11/21 11:53:56;;;;;;;19.27;10.53;;;9.20;99.90;;;;;;4452642;32;20246;-67
2021/11/21 11:56:32;;;;;;;19.83;11.10;;;9.20;99.90;;;;;;4453962;32;20200;-67
2021/11/21 11:59:07;;;;;;;19.60;11.07;;;9.30;99.90;;;;;;4452568;32;20196;-67
2021/11/21 12:01:38;;;;;;;21.67;11.13;;;9.20;99.90;;;;;;4452428;32;20299;-67
2021/11/21 12:04:06;;;;;;;21.33;11.20;;;9.20;99.90;;;;;;4453840;32;20225;-67
2021/11/21 12:06:40;;;;;;;21.27;11.43;;;9.20;99.90;;;;;;4454034;32;20186;-67
2021/11/21 12:09:16;;;;;;;22.37;11.50;;;9.10;99.90;;;;;;4454059;32;20232;-67
2021/11/21 12:12:00;;;;;;;20.30;11.40;;;9.10;99.90;;;;;;4452195;32;20234;-67
2021/11/21 12:14:35;;;;;;;20.77;11.17;;;9.10;99.90;;;;;;4438319;32;20178;-67
2021/11/21 12:17:06;;;;;;;23.87;12.47;;;9.10;99.90;;;;;;4436565;32;20190;-67
2021/11/21 12:19:42;;;;;;;24.97;12.10;;;9.10;99.90;;;;;;4437820;32;20543;-67
2021/11/21 12:22:28;;;;;;;23.40;11.27;;;9.10;99.90;;;;;;4436718;32;20542;-67
2021/11/21 12:24:58;;;;;;;23.70;12.83;;;9.10;99.90;;;;;;4437400;32;20234;-67
2021/11/21 12:27:29;;;;;;;20.73;11.97;;;9.10;99.90;;;;;;4439369;32;20403;-67
2021/11/21 12:30:14;;;;;;;25.60;12.83;;;9.10;99.90;;;;;;4450450;32;20523;-67
2021/11/21 12:32:45;;;;;;;26.17;13.27;;;9.10;99.90;;;;;;4437876;32;20225;-66
2021/11/21 12:35:23;;;;;;;24.83;12.37;;;9.20;99.90;;;;;;4437293;32;20177;-67
2021/11/21 12:37:51;;;;;;;22.67;12.27;;;9.20;99.90;;;;;;4451397;32;20224;-67
2021/11/21 12:40:39;;;;;;;25.13;12.47;;;9.20;99.90;;;;;;4449487;32;20271;-68
2021/11/21 12:43:09;;;;;;;24.10;12.57;;;9.10;99.90;;;;;;4436536;32;20204;-67
2021/11/21 12:45:43;;;;;;;24.50;12.90;;;9.10;99.90;;;;;;4436470;32;20236;-67
2021/11/21 12:48:11;;;;;;;26.03;13.73;;;9.10;99.90;;;;;;4451396;32;20200;-67